Time,TemperatureF,DewpointF,PressureIn,WindDirection,WindDirectionDegrees,WindSpeedMPH,WindSpeedGustMPH,Humidity,HourlyPrecipIn,Conditions,Clouds,dailyrainin,SoftwareType,DateUTC
2013-11-25 00:06:00,48.1,41.0,30.25,SSW,213,0.0,-999.0,77,-99.99,,,0.00,weatherlink.com 1.10,2013-11-25 08:06:00,
2013-11-25 00:21:00,47.6,41.0,30.26,SSW,213,0.0,-999.0,77,-99.99,,,0.00,weatherlink.com 1.10,2013-11-25 08:21:00,
2013-11-25 00:36:00,46.7,41.0,30.26,SSW,213,0.0,-999.0,79,-99.99,,,0.00,weatherlink.com 1.10,2013-11-25 08:36:00,
2013-11-25 00:51:00,45.8,40.0,30.27,SSW,213,0.0,-999.0,81,-99.99,,,0.00,weatherlink.com 1.10,2013-11-25 08:51:00,
2013-11-25 01:06:00,44.8,40.0,30.27,SSW,213,0.0,-999.0,82,-99.99,,,0.01,weatherlink.com 1.10,2013-11-25 09:06:00,
2013-11-25 01:21:00,44.3,40.0,30.27,SSW,213,0.0,-999.0,84,-99.99,,,0.01,weatherlink.com 1.10,2013-11-25 09:21:00,
2013-11-25 01:36:00,43.4,39.0,30.27,SSW,213,0.0,-999.0,85,-99.99,,,0.01,weatherlink.com 1.10,2013-11-25 09:36:00,
2013-11-25 01:51:00,42.9,39.0,30.28,SSW,213,0.0,-999.0,85,-99.99,,,0.01,weatherlink.com 1.10,2013-11-25 09:51:00,
2013-11-25 02:06:00,42.6,39.0,30.28,SSW,213,0.0,-999.0,87,-99.99,,,0.01,weatherlink.com 1.10,2013-11-25 10:06:00,
2013-11-25 02:21:00,42.2,39.0,30.28,SSW,213,0.0,-999.0,87,-99.99,,,0.01,weatherlink.com 1.10,2013-11-25 10:21:00,
2013-11-25 02:36:00,41.7,38.0,30.28,SSW,213,0.0,-999.0,88,-99.99,,,0.01,weatherlink.com 1.10,2013-11-25 10:36:00,
2013-11-25 02:51:00,41.6,39.0,30.28,SSW,213,0.0,-999.0,89,-99.99,,,0.01,weatherlink.com 1.10,2013-11-25 10:51:00,
2013-11-25 03:06:00,41.3,38.0,30.28,SSW,213,0.0,-999.0,87,-99.99,,,0.01,weatherlink.com 1.10,2013-11-25 11:06:00,
2013-11-25 03:21:00,40.8,38.0,30.27,SSW,213,0.0,-999.0,89,-99.99,,,0.01,weatherlink.com 1.10,2013-11-25 11:21:00,
2013-11-25 03:36:00,40.5,38.0,30.28,SSW,213,0.0,-999.0,89,-99.99,,,0.01,weatherlink.com 1.10,2013-11-25 11:36:00,
2013-11-25 03:51:00,40.1,38.0,30.28,SSW,213,0.0,-999.0,90,-99.99,,,0.01,weatherlink.com 1.10,2013-11-25 11:51:00,
2013-11-25 04:06:00,40.4,38.0,30.27,SSW,213,0.0,-999.0,90,-99.99,,,0.01,weatherlink.com 1.10,2013-11-25 12:06:00,
2013-11-25 04:21:00,39.9,37.0,30.28,SSW,213,0.0,-999.0,89,-99.99,,,0.01,weatherlink.com 1.10,2013-11-25 12:21:00,
2013-11-25 04:36:00,39.8,37.0,30.27,SSW,213,0.0,-999.0,90,-99.99,,,0.01,weatherlink.com 1.10,2013-11-25 12:36:00,
2013-11-25 04:51:00,39.3,36.0,30.27,SSW,213,0.0,-999.0,89,-99.99,,,0.01,weatherlink.com 1.10,2013-11-25 12:51:00,
2013-11-25 05:06:00,39.3,37.0,30.28,SSW,213,0.0,-999.0,90,-99.99,,,0.01,weatherlink.com 1.10,2013-11-25 13:06:00,
2013-11-25 05:21:00,39.2,37.0,30.28,SSW,213,0.0,-999.0,91,-99.99,,,0.01,weatherlink.com 1.10,2013-11-25 13:21:00,
2013-11-25 05:36:00,39.1,37.0,30.28,SSW,213,0.0,-999.0,91,-99.99,,,0.01,weatherlink.com 1.10,2013-11-25 13:36:00,
2013-11-25 05:51:00,39.2,37.0,30.29,SSW,213,0.0,-999.0,91,-99.99,,,0.01,weatherlink.com 1.10,2013-11-25 13:51:00,
2013-11-25 06:06:00,39.1,37.0,30.29,SSW,213,0.0,-999.0,91,-99.99,,,0.01,weatherlink.com 1.10,2013-11-25 14:06:00,
2013-11-25 06:21:00,39.2,37.0,30.30,SSW,213,0.0,-999.0,91,-99.99,,,0.01,weatherlink.com 1.10,2013-11-25 14:21:00,
2013-11-25 06:36:00,39.2,37.0,30.30,SSW,213,0.0,-999.0,90,-99.99,,,0.01,weatherlink.com 1.10,2013-11-25 14:36:00,
2013-11-25 06:51:00,39.1,37.0,30.30,SSW,213,0.0,-999.0,90,-99.99,,,0.01,weatherlink.com 1.10,2013-11-25 14:51:00,
2013-11-25 07:06:00,39.0,37.0,30.30,SSW,213,0.0,-999.0,91,-99.99,,,0.02,weatherlink.com 1.10,2013-11-25 15:06:00,
2013-11-25 07:21:00,38.8,36.0,30.31,SSW,213,0.0,-999.0,91,-99.99,,,0.02,weatherlink.com 1.10,2013-11-25 15:21:00,
2013-11-25 07:36:00,38.3,36.0,30.31,SSW,213,0.0,-999.0,91,-99.99,,,0.02,weatherlink.com 1.10,2013-11-25 15:36:00,
2013-11-25 07:51:00,39.6,38.0,30.31,SSW,213,0.0,-999.0,93,-99.99,,,0.02,weatherlink.com 1.10,2013-11-25 15:51:00,
2013-11-25 08:06:00,41.1,39.0,30.32,SSW,213,0.0,-999.0,91,-99.99,,,0.02,weatherlink.com 1.10,2013-11-25 16:06:00,
2013-11-25 08:21:00,42.1,39.0,30.32,SSW,213,0.0,-999.0,90,-99.99,,,0.02,weatherlink.com 1.10,2013-11-25 16:21:00,
2013-11-25 08:36:00,43.4,41.0,30.32,SSW,213,0.0,-999.0,91,-99.99,,,0.02,weatherlink.com 1.10,2013-11-25 16:36:00,
2013-11-25 08:51:00,45.2,42.0,30.33,SSW,213,0.0,-999.0,88,-99.99,,,0.02,weatherlink.com 1.10,2013-11-25 16:51:00,
2013-11-25 09:06:00,47.3,43.0,30.34,SSW,213,0.0,-999.0,84,-99.99,,,0.02,weatherlink.com 1.10,2013-11-25 17:06:00,
2013-11-25 09:21:00,49.2,43.0,30.34,SSW,213,0.0,-999.0,78,-99.99,,,0.02,weatherlink.com 1.10,2013-11-25 17:21:00,
2013-11-25 09:36:00,50.7,43.0,30.34,SSW,213,0.0,-999.0,76,-99.99,,,0.02,weatherlink.com 1.10,2013-11-25 17:36:00,
2013-11-25 09:51:00,52.3,43.0,30.35,SSW,213,0.0,-999.0,70,-99.99,,,0.02,weatherlink.com 1.10,2013-11-25 17:51:00,
2013-11-25 10:06:00,53.3,44.0,30.35,SSW,213,0.0,-999.0,71,-99.99,,,0.02,weatherlink.com 1.10,2013-11-25 18:06:00,
2013-11-25 10:21:00,54.5,43.0,30.34,SSW,213,0.0,-999.0,66,-99.99,,,0.02,weatherlink.com 1.10,2013-11-25 18:21:00,
2013-11-25 10:36:00,55.6,43.0,30.34,SSW,213,0.0,-999.0,64,-99.99,,,0.03,weatherlink.com 1.10,2013-11-25 18:36:00,
2013-11-25 10:52:00,56.4,43.0,30.34,SSW,213,0.0,-999.0,61,-99.99,,,0.03,weatherlink.com 1.10,2013-11-25 18:52:00,
2013-11-25 11:21:00,58.7,43.0,30.33,SSW,213,0.0,-999.0,57,-99.99,,,0.03,weatherlink.com 1.10,2013-11-25 19:21:00,
2013-11-25 11:36:00,59.3,43.0,30.32,SSW,213,0.0,-999.0,56,-99.99,,,0.03,weatherlink.com 1.10,2013-11-25 19:36:00,
2013-11-25 11:51:00,60.3,44.0,30.31,SSW,213,0.0,-999.0,55,-99.99,,,0.03,weatherlink.com 1.10,2013-11-25 19:51:00,
2013-11-25 12:06:00,60.5,43.0,30.31,SSW,213,0.0,-999.0,53,-99.99,,,0.03,weatherlink.com 1.10,2013-11-25 20:06:00,
2013-11-25 12:21:00,61.9,43.0,30.30,SSW,213,0.0,-999.0,50,-99.99,,,0.03,weatherlink.com 1.10,2013-11-25 20:21:00,
2013-11-25 12:36:00,62.4,43.0,30.30,SSW,213,0.0,-999.0,50,-99.99,,,0.03,weatherlink.com 1.10,2013-11-25 20:36:00,
2013-11-25 12:51:00,63.4,43.0,30.30,SSW,213,0.0,-999.0,48,-99.99,,,0.03,weatherlink.com 1.10,2013-11-25 20:51:00,
2013-11-25 13:06:00,64.4,43.0,30.29,SSW,213,0.0,-999.0,46,-99.99,,,0.03,weatherlink.com 1.10,2013-11-25 21:06:00,
2013-11-25 13:21:00,64.8,44.0,30.29,WSW,242,4.0,-999.0,47,-99.99,,,0.03,weatherlink.com 1.10,2013-11-25 21:21:00,
2013-11-25 13:36:00,65.1,44.0,30.29,West,261,0.0,-999.0,47,-99.99,,,0.03,weatherlink.com 1.10,2013-11-25 21:36:00,
2013-11-25 13:51:00,65.2,44.0,30.28,West,264,4.0,-999.0,47,-99.99,,,0.03,weatherlink.com 1.10,2013-11-25 21:51:00,
2013-11-25 14:06:00,65.6,45.0,30.28,West,266,2.0,-999.0,47,-99.99,,,0.03,weatherlink.com 1.10,2013-11-25 22:06:00,
2013-11-25 14:21:00,65.6,45.0,30.28,West,271,2.0,-999.0,47,-99.99,,,0.03,weatherlink.com 1.10,2013-11-25 22:21:00,
2013-11-25 14:36:00,65.6,44.0,30.28,West,277,0.0,-999.0,46,-99.99,,,0.04,weatherlink.com 1.10,2013-11-25 22:36:00,
2013-11-25 14:51:00,65.4,44.0,30.28,West,277,0.0,-999.0,47,-99.99,,,0.04,weatherlink.com 1.10,2013-11-25 22:51:00,
2013-11-25 15:06:00,64.5,44.0,30.28,West,279,6.0,-999.0,47,-99.99,,,0.04,weatherlink.com 1.10,2013-11-25 23:06:00,
2013-11-25 15:21:00,64.4,43.0,30.28,West,279,0.0,-999.0,46,-99.99,,,0.04,weatherlink.com 1.10,2013-11-25 23:21:00,
2013-11-25 15:36:00,64.0,43.0,30.28,West,279,0.0,-999.0,46,-99.99,,,0.04,weatherlink.com 1.10,2013-11-25 23:36:00,
2013-11-25 15:51:00,62.9,43.0,30.27,West,279,0.0,-999.0,49,-99.99,,,0.04,weatherlink.com 1.10,2013-11-25 23:51:00,
2013-11-25 16:06:00,61.9,42.0,30.27,West,279,0.0,-999.0,49,-99.99,,,0.04,weatherlink.com 1.10,2013-11-26 00:06:00,
2013-11-25 16:21:00,61.1,43.0,30.27,West,279,0.0,-999.0,51,-99.99,,,0.04,weatherlink.com 1.10,2013-11-26 00:21:00,
2013-11-25 16:36:00,60.4,43.0,30.27,West,279,0.0,-999.0,53,-99.99,,,0.04,weatherlink.com 1.10,2013-11-26 00:36:00,
2013-11-25 16:51:00,59.2,42.0,30.27,West,279,0.0,-999.0,54,-99.99,,,0.04,weatherlink.com 1.10,2013-11-26 00:51:00,
2013-11-25 17:06:00,57.6,43.0,30.27,West,279,0.0,-999.0,59,-99.99,,,0.04,weatherlink.com 1.10,2013-11-26 01:06:00,
2013-11-25 17:21:00,56.2,43.0,30.27,West,279,0.0,-999.0,62,-99.99,,,0.05,weatherlink.com 1.10,2013-11-26 01:21:00,
2013-11-25 17:36:00,55.1,43.0,30.27,West,279,0.0,-999.0,65,-99.99,,,0.05,weatherlink.com 1.10,2013-11-26 01:36:00,
2013-11-25 17:51:00,53.9,43.0,30.27,West,279,0.0,-999.0,68,-99.99,,,0.05,weatherlink.com 1.10,2013-11-26 01:51:00,
2013-11-25 18:06:00,53.1,44.0,30.27,West,279,0.0,-999.0,70,-99.99,,,0.05,weatherlink.com 1.10,2013-11-26 02:06:00,
2013-11-25 18:21:00,51.7,43.0,30.27,West,279,0.0,-999.0,71,-99.99,,,0.05,weatherlink.com 1.10,2013-11-26 02:21:00,
2013-11-25 18:36:00,50.9,43.0,30.26,West,279,0.0,-999.0,74,-99.99,,,0.05,weatherlink.com 1.10,2013-11-26 02:36:00,
2013-11-25 18:51:00,50.3,42.0,30.26,West,279,0.0,-999.0,74,-99.99,,,0.05,weatherlink.com 1.10,2013-11-26 02:51:00,
2013-11-25 19:06:00,49.2,42.0,30.27,West,279,0.0,-999.0,77,-99.99,,,0.05,weatherlink.com 1.10,2013-11-26 03:06:00,
2013-11-25 19:21:00,48.4,43.0,30.27,West,279,0.0,-999.0,80,-99.99,,,0.05,weatherlink.com 1.10,2013-11-26 03:21:00,
2013-11-25 19:36:00,48.2,42.0,30.27,West,279,0.0,-999.0,80,-99.99,,,0.05,weatherlink.com 1.10,2013-11-26 03:36:00,
2013-11-25 19:51:00,48.0,42.0,30.27,West,279,0.0,-999.0,80,-99.99,,,0.05,weatherlink.com 1.10,2013-11-26 03:51:00,
2013-11-25 20:06:00,47.5,42.0,30.27,West,279,0.0,-999.0,82,-99.99,,,0.05,weatherlink.com 1.10,2013-11-26 04:06:00,
2013-11-25 20:21:00,46.8,42.0,30.28,West,279,0.0,-999.0,82,-99.99,,,0.05,weatherlink.com 1.10,2013-11-26 04:21:00,
2013-11-25 20:36:00,46.4,42.0,30.28,West,279,0.0,-999.0,84,-99.99,,,0.05,weatherlink.com 1.10,2013-11-26 04:36:00,
2013-11-25 20:51:00,46.4,42.0,30.28,West,279,0.0,-999.0,84,-99.99,,,0.05,weatherlink.com 1.10,2013-11-26 04:51:00,
2013-11-25 21:06:00,46.1,42.0,30.28,West,279,0.0,-999.0,84,-99.99,,,0.05,weatherlink.com 1.10,2013-11-26 05:06:00,
2013-11-25 21:21:00,45.8,41.0,30.28,West,279,0.0,-999.0,84,-99.99,,,0.05,weatherlink.com 1.10,2013-11-26 05:21:00,
2013-11-25 21:36:00,45.3,41.0,30.28,West,279,0.0,-999.0,85,-99.99,,,0.05,weatherlink.com 1.10,2013-11-26 05:36:00,
2013-11-25 21:51:00,44.9,41.0,30.28,West,279,0.0,-999.0,85,-99.99,,,0.05,weatherlink.com 1.10,2013-11-26 05:51:00,
2013-11-25 22:06:00,44.6,41.0,30.29,West,279,0.0,-999.0,86,-99.99,,,0.05,weatherlink.com 1.10,2013-11-26 06:06:00,
2013-11-25 22:21:00,44.4,41.0,30.29,West,279,0.0,-999.0,86,-99.99,,,0.05,weatherlink.com 1.10,2013-11-26 06:21:00,
2013-11-25 22:36:00,44.1,41.0,30.29,West,279,0.0,-999.0,87,-99.99,,,0.05,weatherlink.com 1.10,2013-11-26 06:36:00,
2013-11-25 22:51:00,43.3,39.0,30.29,West,279,0.0,-999.0,86,-99.99,,,0.05,weatherlink.com 1.10,2013-11-26 06:51:00,
2013-11-25 23:06:00,43.2,41.0,30.29,West,279,0.0,-999.0,92,-99.99,,,0.05,weatherlink.com 1.10,2013-11-26 07:06:00,
2013-11-25 23:21:00,43.2,40.0,30.28,West,279,0.0,-999.0,87,-99.99,,,0.05,weatherlink.com 1.10,2013-11-26 07:21:00,
2013-11-25 23:36:00,42.7,39.0,30.29,West,279,0.0,-999.0,87,-99.99,,,0.05,weatherlink.com 1.10,2013-11-26 07:36:00,
2013-11-25 23:51:00,42.6,39.0,30.29,West,279,0.0,-999.0,87,-99.99,,,0.06,weatherlink.com 1.10,2013-11-26 07:51:00,